sensor_id;sensor_type;location;lat;lon;timestamp;pressure;altitude;pressure_sealevel;temperature;humidity
9774;BME280;4926;42.670;23.316;2023-10-31T00:02:19;94781.41;;;13.74;86.74
9774;BME280;4926;42.670;23.316;2023-10-31T00:04:48;94780.63;;;13.74;86.63
9774;BME280;4926;42.670;23.316;2023-10-31T00:07:16;94784.13;;;13.61;87.19
9774;BME280;4926;42.670;23.316;2023-10-31T00:09:43;94773.53;;;13.42;88.28
9774;BME280;4926;42.670;23.316;2023-10-31T00:12:10;94776.09;;;13.47;88.57
9774;BME280;4926;42.670;23.316;2023-10-31T00:14:37;94781.13;;;13.62;87.16
9774;BME280;4926;42.670;23.316;2023-10-31T00:17:05;94769.84;;;13.52;88.06
9774;BME280;4926;42.670;23.316;2023-10-31T00:19:32;94766.09;;;13.39;88.77
9774;BME280;4926;42.670;23.316;2023-10-31T00:22:01;94762.44;;;13.35;89.12
9774;BME280;4926;42.670;23.316;2023-10-31T00:24:29;94762.53;;;13.43;88.65
9774;BME280;4926;42.670;23.316;2023-10-31T00:27:02;94744.31;;;13.32;88.70
9774;BME280;4926;42.670;23.316;2023-10-31T00:29:29;94756.97;;;13.40;89.07
9774;BME280;4926;42.670;23.316;2023-10-31T00:31:56;94761.94;;;13.47;89.02
9774;BME280;4926;42.670;23.316;2023-10-31T00:34:22;94759.97;;;13.52;88.51
9774;BME280;4926;42.670;23.316;2023-10-31T00:36:52;94757.88;;;13.49;88.03
9774;BME280;4926;42.670;23.316;2023-10-31T00:39:19;94766.91;;;13.39;88.81
9774;BME280;4926;42.670;23.316;2023-10-31T00:41:48;94752.84;;;13.34;89.57
9774;BME280;4926;42.670;23.316;2023-10-31T00:44:15;94738.38;;;13.35;89.43
9774;BME280;4926;42.670;23.316;2023-10-31T00:46:42;94750.53;;;13.55;88.65
9774;BME280;4926;42.670;23.316;2023-10-31T00:49:09;94745.59;;;13.48;88.88
9774;BME280;4926;42.670;23.316;2023-10-31T00:51:35;94744.31;;;13.59;88.54
9774;BME280;4926;42.670;23.316;2023-10-31T00:54:02;94748.66;;;13.55;87.77
9774;BME280;4926;42.670;23.316;2023-10-31T00:56:29;94750.34;;;13.51;88.35
9774;BME280;4926;42.670;23.316;2023-10-31T00:58:57;94745.47;;;13.53;88.29
9774;BME280;4926;42.670;23.316;2023-10-31T01:01:27;94734.19;;;13.56;88.15
9774;BME280;4926;42.670;23.316;2023-10-31T01:03:53;94732.63;;;13.28;89.86
9774;BME280;4926;42.670;23.316;2023-10-31T01:06:20;94734.06;;;13.12;90.98
9774;BME280;4926;42.670;23.316;2023-10-31T01:08:47;94732.84;;;13.18;90.85
9774;BME280;4926;42.670;23.316;2023-10-31T01:11:14;94715.59;;;12.97;91.69
9774;BME280;4926;42.670;23.316;2023-10-31T01:13:41;94720.00;;;13.06;92.09
9774;BME280;4926;42.670;23.316;2023-10-31T01:16:09;94723.38;;;13.12;91.49
9774;BME280;4926;42.670;23.316;2023-10-31T01:18:36;94711.78;;;13.03;92.48
9774;BME280;4926;42.670;23.316;2023-10-31T01:21:03;94709.13;;;13.03;92.83
9774;BME280;4926;42.670;23.316;2023-10-31T01:23:34;94714.13;;;12.91;94.31
9774;BME280;4926;42.670;23.316;2023-10-31T01:26:01;94713.44;;;12.85;95.14
9774;BME280;4926;42.670;23.316;2023-10-31T01:28:28;94712.63;;;12.98;94.02
9774;BME280;4926;42.670;23.316;2023-10-31T01:30:54;94706.50;;;12.98;93.61
9774;BME280;4926;42.670;23.316;2023-10-31T01:33:23;94696.50;;;12.90;94.27
9774;BME280;4926;42.670;23.316;2023-10-31T01:35:49;94697.22;;;12.68;96.36
9774;BME280;4926;42.670;23.316;2023-10-31T01:38:16;94686.50;;;12.55;97.29
9774;BME280;4926;42.670;23.316;2023-10-31T01:40:48;94690.84;;;12.51;98.43
9774;BME280;4926;42.670;23.316;2023-10-31T01:43:29;94688.41;;;12.22;100.00
9774;BME280;4926;42.670;23.316;2023-10-31T01:45:58;94693.16;;;12.25;100.00
9774;BME280;4926;42.670;23.316;2023-10-31T01:48:27;94685.25;;;12.20;100.00
9774;BME280;4926;42.670;23.316;2023-10-31T01:50:58;94687.53;;;12.26;100.00
9774;BME280;4926;42.670;23.316;2023-10-31T01:53:26;94686.13;;;12.15;100.00
9774;BME280;4926;42.670;23.316;2023-10-31T01:55:54;94685.31;;;12.01;100.00
9774;BME280;4926;42.670;23.316;2023-10-31T01:58:26;94688.72;;;11.88;100.00
9774;BME280;4926;42.670;23.316;2023-10-31T02:00:56;94681.28;;;11.85;100.00
9774;BME280;4926;42.670;23.316;2023-10-31T02:03:23;94666.66;;;11.83;100.00
9774;BME280;4926;42.670;23.316;2023-10-31T02:05:52;94672.41;;;11.90;100.00
9774;BME280;4926;42.670;23.316;2023-10-31T02:08:21;94672.69;;;11.88;100.00
9774;BME280;4926;42.670;23.316;2023-10-31T02:10:48;94675.03;;;11.76;100.00
9774;BME280;4926;42.670;23.316;2023-10-31T02:13:16;94675.03;;;11.76;100.00
9774;BME280;4926;42.670;23.316;2023-10-31T02:15:43;94661.63;;;11.81;100.00
9774;BME280;4926;42.670;23.316;2023-10-31T02:18:10;94650.63;;;11.69;100.00
9774;BME280;4926;42.670;23.316;2023-10-31T02:20:37;94664.56;;;11.80;100.00
9774;BME280;4926;42.670;23.316;2023-10-31T02:23:07;94665.38;;;11.80;100.00
9774;BME280;4926;42.670;23.316;2023-10-31T02:25:34;94656.06;;;11.78;100.00
9774;BME280;4926;42.670;23.316;2023-10-31T02:28:00;94646.53;;;11.90;100.00
9774;BME280;4926;42.670;23.316;2023-10-31T02:30:27;94659.91;;;12.04;100.00
9774;BME280;4926;42.670;23.316;2023-10-31T02:32:54;94663.28;;;12.09;100.00
9774;BME280;4926;42.670;23.316;2023-10-31T02:35:21;94660.09;;;12.07;100.00
9774;BME280;4926;42.670;23.316;2023-10-31T02:37:48;94659.53;;;12.10;100.00
9774;BME280;4926;42.670;23.316;2023-10-31T02:40:16;94657.28;;;12.17;100.00
9774;BME280;4926;42.670;23.316;2023-10-31T02:42:45;94648.38;;;12.08;100.00
9774;BME280;4926;42.670;23.316;2023-10-31T02:45:14;94654.53;;;12.22;100.00
9774;BME280;4926;42.670;23.316;2023-10-31T02:47:40;94661.34;;;12.28;100.00
9774;BME280;4926;42.670;23.316;2023-10-31T02:50:09;94658.38;;;12.30;100.00
9774;BME280;4926;42.670;23.316;2023-10-31T02:52:35;94670.84;;;12.34;100.00
9774;BME280;4926;42.670;23.316;2023-10-31T02:55:03;94658.97;;;12.41;100.00
9774;BME280;4926;42.670;23.316;2023-10-31T02:57:32;94661.66;;;12.41;100.00
9774;BME280;4926;42.670;23.316;2023-10-31T03:00:01;94664.53;;;12.44;100.00
9774;BME280;4926;42.670;23.316;2023-10-31T03:02:31;94662.53;;;12.36;100.00
9774;BME280;4926;42.670;23.316;2023-10-31T03:04:57;94653.25;;;12.33;100.00
9774;BME280;4926;42.670;23.316;2023-10-31T03:07:24;94663.91;;;12.33;100.00
9774;BME280;4926;42.670;23.316;2023-10-31T03:09:51;94642.34;;;12.16;100.00
9774;BME280;4926;42.670;23.316;2023-10-31T03:12:19;94662.94;;;12.29;100.00
9774;BME280;4926;42.670;23.316;2023-10-31T03:14:47;94670.44;;;12.27;100.00
9774;BME280;4926;42.670;23.316;2023-10-31T03:17:14;94665.84;;;12.14;100.00
9774;BME280;4926;42.670;23.316;2023-10-31T03:19:41;94656.38;;;12.08;100.00
9774;BME280;4926;42.670;23.316;2023-10-31T03:22:13;94661.03;;;12.16;100.00
9774;BME280;4926;42.670;23.316;2023-10-31T03:24:42;94652.75;;;12.31;100.00
9774;BME280;4926;42.670;23.316;2023-10-31T03:27:09;94650.28;;;12.35;100.00
9774;BME280;4926;42.670;23.316;2023-10-31T03:29:36;94649.50;;;12.34;100.00
9774;BME280;4926;42.670;23.316;2023-10-31T03:32:04;94638.91;;;12.29;100.00
9774;BME280;4926;42.670;23.316;2023-10-31T03:34:31;94643.31;;;12.07;100.00
9774;BME280;4926;42.670;23.316;2023-10-31T03:37:01;94635.88;;;12.04;100.00
9774;BME280;4926;42.670;23.316;2023-10-31T03:39:31;94625.28;;;11.85;100.00
9774;BME280;4926;42.670;23.316;2023-10-31T03:41:58;94629.72;;;11.58;100.00
9774;BME280;4926;42.670;23.316;2023-10-31T03:44:24;94628.50;;;11.50;100.00
9774;BME280;4926;42.670;23.316;2023-10-31T03:46:51;94638.28;;;11.36;100.00
9774;BME280;4926;42.670;23.316;2023-10-31T03:49:19;94631.19;;;11.32;100.00
9774;BME280;4926;42.670;23.316;2023-10-31T03:51:49;94629.63;;;11.44;100.00
9774;BME280;4926;42.670;23.316;2023-10-31T03:54:18;94644.09;;;11.57;100.00
9774;BME280;4926;42.670;23.316;2023-10-31T03:56:45;94641.22;;;11.53;100.00
9774;BME280;4926;42.670;23.316;2023-10-31T03:59:13;94632.03;;;11.46;100.00
9774;BME280;4926;42.670;23.316;2023-10-31T04:01:39;94639.88;;;11.37;100.00
9774;BME280;4926;42.670;23.316;2023-10-31T04:04:06;94636.94;;;11.39;100.00
9774;BME280;4926;42.670;23.316;2023-10-31T04:06:40;94631.41;;;11.35;100.00
9774;BME280;4926;42.670;23.316;2023-10-31T04:09:10;94644.19;;;11.14;100.00
9774;BME280;4926;42.670;23.316;2023-10-31T04:11:35;94629.50;;;11.17;100.00
9774;BME280;4926;42.670;23.316;2023-10-31T04:14:03;94635.22;;;11.10;100.00
9774;BME280;4926;42.670;23.316;2023-10-31T04:16:31;94655.03;;;11.23;100.00
9774;BME280;4926;42.670;23.316;2023-10-31T04:18:57;94632.47;;;11.15;100.00
9774;BME280;4926;42.670;23.316;2023-10-31T04:21:24;94634.84;;;11.17;100.00
9774;BME280;4926;42.670;23.316;2023-10-31T04:23:52;94618.84;;;11.17;100.00
9774;BME280;4926;42.670;23.316;2023-10-31T04:26:19;94625.72;;;11.23;100.00
9774;BME280;4926;42.670;23.316;2023-10-31T04:28:46;94614.09;;;10.95;100.00
9774;BME280;4926;42.670;23.316;2023-10-31T04:31:12;94611.63;;;10.80;100.00
9774;BME280;4926;42.670;23.316;2023-10-31T04:33:39;94598.69;;;10.74;100.00
9774;BME280;4926;42.670;23.316;2023-10-31T04:36:06;94621.41;;;10.66;100.00
9774;BME280;4926;42.670;23.316;2023-10-31T04:38:36;94621.38;;;10.48;100.00
9774;BME280;4926;42.670;23.316;2023-10-31T04:41:05;94627.91;;;10.55;100.00
9774;BME280;4926;42.670;23.316;2023-10-31T04:50:09;94618.25;;;10.41;100.00
9774;BME280;4926;42.670;23.316;2023-10-31T04:52:36;94634.63;;;10.53;100.00
9774;BME280;4926;42.670;23.316;2023-10-31T04:55:03;94641.75;;;10.57;100.00
9774;BME280;4926;42.670;23.316;2023-10-31T04:57:31;94642.53;;;10.58;100.00
9774;BME280;4926;42.670;23.316;2023-10-31T05:00:00;94636.88;;;10.64;100.00
9774;BME280;4926;42.670;23.316;2023-10-31T05:02:28;94650.13;;;10.69;100.00
9774;BME280;4926;42.670;23.316;2023-10-31T05:04:55;94642.13;;;10.69;100.00
9774;BME280;4926;42.670;23.316;2023-10-31T05:07:23;94644.47;;;10.76;100.00
9774;BME280;4926;42.670;23.316;2023-10-31T05:09:50;94640.13;;;10.80;100.00
9774;BME280;4926;42.670;23.316;2023-10-31T05:12:17;94648.41;;;10.78;100.00
9774;BME280;4926;42.670;23.316;2023-10-31T05:14:45;94637.47;;;10.80;100.00
9774;BME280;4926;42.670;23.316;2023-10-31T05:17:12;94627.78;;;10.89;100.00
9774;BME280;4926;42.670;23.316;2023-10-31T05:19:39;94638.84;;;10.96;100.00
9774;BME280;4926;42.670;23.316;2023-10-31T05:22:05;94640.44;;;10.97;100.00
9774;BME280;4926;42.670;23.316;2023-10-31T05:24:34;94658.47;;;11.05;100.00
9774;BME280;4926;42.670;23.316;2023-10-31T05:27:01;94646.34;;;10.94;100.00
9774;BME280;4926;42.670;23.316;2023-10-31T05:29:28;94642.63;;;10.95;100.00
9774;BME280;4926;42.670;23.316;2023-10-31T05:31:57;94651.66;;;10.94;100.00
9774;BME280;4926;42.670;23.316;2023-10-31T05:34:23;94637.97;;;10.82;100.00
9774;BME280;4926;42.670;23.316;2023-10-31T05:36:50;94657.25;;;10.74;100.00
9774;BME280;4926;42.670;23.316;2023-10-31T05:39:16;94664.47;;;10.92;100.00
9774;BME280;4926;42.670;23.316;2023-10-31T05:41:43;94660.03;;;11.06;100.00
9774;BME280;4926;42.670;23.316;2023-10-31T05:44:10;94655.13;;;11.13;100.00
9774;BME280;4926;42.670;23.316;2023-10-31T05:46:37;94650.75;;;11.22;100.00
9774;BME280;4926;42.670;23.316;2023-10-31T05:49:07;94654.44;;;11.26;100.00
9774;BME280;4926;42.670;23.316;2023-10-31T05:51:36;94659.03;;;11.39;100.00
9774;BME280;4926;42.670;23.316;2023-10-31T05:54:06;94657.47;;;11.38;100.00
9774;BME280;4926;42.670;23.316;2023-10-31T05:56:33;94674.69;;;11.46;100.00
9774;BME280;4926;42.670;23.316;2023-10-31T05:59:07;94670.50;;;11.21;100.00
9774;BME280;4926;42.670;23.316;2023-10-31T06:01:34;94680.44;;;11.15;100.00
9774;BME280;4926;42.670;23.316;2023-10-31T06:04:04;94683.47;;;11.27;100.00
9774;BME280;4926;42.670;23.316;2023-10-31T06:06:32;94677.25;;;11.32;100.00
9774;BME280;4926;42.670;23.316;2023-10-31T06:08:59;94684.31;;;11.42;100.00
9774;BME280;4926;42.670;23.316;2023-10-31T06:11:30;94699.97;;;11.48;100.00
9774;BME280;4926;42.670;23.316;2023-10-31T06:13:58;94699.97;;;11.48;100.00
9774;BME280;4926;42.670;23.316;2023-10-31T06:16:30;94709.47;;;11.54;100.00
9774;BME280;4926;42.670;23.316;2023-10-31T06:18:57;94697.53;;;11.70;100.00
9774;BME280;4926;42.670;23.316;2023-10-31T06:21:24;94689.88;;;11.82;100.00
9774;BME280;4926;42.670;23.316;2023-10-31T06:23:52;94674.09;;;11.86;100.00
9774;BME280;4926;42.670;23.316;2023-10-31T06:26:18;94680.00;;;11.83;100.00
9774;BME280;4926;42.670;23.316;2023-10-31T06:28:48;94687.06;;;11.92;100.00
9774;BME280;4926;42.670;23.316;2023-10-31T06:31:14;94691.16;;;11.85;100.00
9774;BME280;4926;42.670;23.316;2023-10-31T06:33:41;94690.72;;;11.96;100.00
9774;BME280;4926;42.670;23.316;2023-10-31T06:36:08;94695.88;;;12.06;100.00
9774;BME280;4926;42.670;23.316;2023-10-31T06:38:34;94695.50;;;12.13;100.00
9774;BME280;4926;42.670;23.316;2023-10-31T06:41:03;94688.72;;;12.20;100.00
9774;BME280;4926;42.670;23.316;2023-10-31T06:43:30;94692.81;;;12.31;100.00
9774;BME280;4926;42.670;23.316;2023-10-31T06:45:56;94686.06;;;12.34;100.00
9774;BME280;4926;42.670;23.316;2023-10-31T06:48:25;94685.50;;;12.51;100.00
9774;BME280;4926;42.670;23.316;2023-10-31T06:50:52;94687.50;;;12.72;100.00
9774;BME280;4926;42.670;23.316;2023-10-31T06:53:19;94686.19;;;12.97;100.00
9774;BME280;4926;42.670;23.316;2023-10-31T06:55:45;94676.75;;;13.40;100.00
9774;BME280;4926;42.670;23.316;2023-10-31T06:58:13;94676.47;;;13.99;97.50
9774;BME280;4926;42.670;23.316;2023-10-31T07:00:40;94679.81;;;14.57;91.41
9774;BME280;4926;42.670;23.316;2023-10-31T07:03:07;94665.38;;;15.15;86.73
9774;BME280;4926;42.670;23.316;2023-10-31T07:05:43;94663.44;;;15.72;82.44
9774;BME280;4926;42.670;23.316;2023-10-31T07:08:09;94664.63;;;16.25;79.11
9774;BME280;4926;42.670;23.316;2023-10-31T07:10:36;94654.25;;;16.79;75.21
9774;BME280;4926;42.670;23.316;2023-10-31T07:13:03;94643.59;;;16.91;72.13
9774;BME280;4926;42.670;23.316;2023-10-31T07:15:32;94642.47;;;17.21;71.00
9774;BME280;4926;42.670;23.316;2023-10-31T07:18:04;94641.63;;;17.78;69.95
9774;BME280;4926;42.670;23.316;2023-10-31T07:20:32;94629.34;;;18.22;66.54
9774;BME280;4926;42.670;23.316;2023-10-31T07:22:59;94617.69;;;18.75;64.31
9774;BME280;4926;42.670;23.316;2023-10-31T07:25:26;94609.94;;;19.34;62.16
9774;BME280;4926;42.670;23.316;2023-10-31T07:27:52;94607.75;;;19.91;60.05
9774;BME280;4926;42.670;23.316;2023-10-31T07:30:20;94602.34;;;20.46;57.55
9774;BME280;4926;42.670;23.316;2023-10-31T07:32:49;94587.97;;;20.73;55.21
9774;BME280;4926;42.670;23.316;2023-10-31T07:35:16;94584.78;;;20.40;54.55
9774;BME280;4926;42.670;23.316;2023-10-31T07:37:47;94589.38;;;20.24;55.58
9774;BME280;4926;42.670;23.316;2023-10-31T07:40:17;94592.03;;;19.81;56.34
9774;BME280;4926;42.670;23.316;2023-10-31T07:42:44;94594.56;;;20.29;56.23
9774;BME280;4926;42.670;23.316;2023-10-31T07:45:10;94569.00;;;20.73;54.45
9774;BME280;4926;42.670;23.316;2023-10-31T07:50:09;94570.13;;;21.19;53.26
9774;BME280;4926;42.670;23.316;2023-10-31T07:52:39;94551.72;;;21.63;52.38
9774;BME280;4926;42.670;23.316;2023-10-31T07:55:16;94550.47;;;22.14;50.78
9774;BME280;4926;42.670;23.316;2023-10-31T07:57:43;94525.84;;;22.45;49.48
9774;BME280;4926;42.670;23.316;2023-10-31T08:00:11;94528.53;;;22.90;48.64
9774;BME280;4926;42.670;23.316;2023-10-31T08:02:38;94512.38;;;23.27;47.85
9774;BME280;4926;42.670;23.316;2023-10-31T08:05:07;94503.41;;;23.79;46.69
9774;BME280;4926;42.670;23.316;2023-10-31T08:07:36;94497.31;;;23.92;45.88
9774;BME280;4926;42.670;23.316;2023-10-31T08:10:04;94492.09;;;24.10;45.93
9774;BME280;4926;42.670;23.316;2023-10-31T08:12:31;94505.50;;;24.29;45.18
9774;BME280;4926;42.670;23.316;2023-10-31T08:14:58;94489.38;;;24.50;44.70
9774;BME280;4926;42.670;23.316;2023-10-31T08:17:25;94509.88;;;24.81;44.60
9774;BME280;4926;42.670;23.316;2023-10-31T08:19:52;94489.63;;;25.36;43.31
9774;BME280;4926;42.670;23.316;2023-10-31T08:22:22;94475.06;;;25.90;42.27
9774;BME280;4926;42.670;23.316;2023-10-31T08:24:50;94478.91;;;25.71;41.92
9774;BME280;4926;42.670;23.316;2023-10-31T08:27:17;94481.50;;;25.40;42.73
9774;BME280;4926;42.670;23.316;2023-10-31T08:29:43;94467.59;;;25.66;42.27
9774;BME280;4926;42.670;23.316;2023-10-31T08:32:10;94474.53;;;25.53;42.17
9774;BME280;4926;42.670;23.316;2023-10-31T08:34:37;94471.13;;;25.01;43.25
9774;BME280;4926;42.670;23.316;2023-10-31T08:37:03;94464.28;;;25.28;43.04
9774;BME280;4926;42.670;23.316;2023-10-31T08:39:35;94460.22;;;25.73;41.96
9774;BME280;4926;42.670;23.316;2023-10-31T08:42:04;94455.63;;;26.02;41.63
9774;BME280;4926;42.670;23.316;2023-10-31T08:44:31;94444.41;;;26.45;40.79
9774;BME280;4926;42.670;23.316;2023-10-31T08:47:02;94434.66;;;26.87;40.37
9774;BME280;4926;42.670;23.316;2023-10-31T08:49:28;94417.81;;;27.16;39.53
9774;BME280;4926;42.670;23.316;2023-10-31T08:51:57;94409.59;;;27.34;38.81
9774;BME280;4926;42.670;23.316;2023-10-31T08:54:23;94402.56;;;27.15;38.94
9774;BME280;4926;42.670;23.316;2023-10-31T08:56:50;94416.28;;;26.91;39.46
9774;BME280;4926;42.670;23.316;2023-10-31T08:59:18;94416.31;;;26.87;39.55
9774;BME280;4926;42.670;23.316;2023-10-31T09:01:45;94403.81;;;26.86;39.74
9774;BME280;4926;42.670;23.316;2023-10-31T09:04:12;94407.75;;;26.78;39.32
9774;BME280;4926;42.670;23.316;2023-10-31T09:06:41;94404.16;;;25.90;40.58
9774;BME280;4926;42.670;23.316;2023-10-31T09:09:07;94407.75;;;25.11;41.48
9774;BME280;4926;42.670;23.316;2023-10-31T09:11:35;94390.47;;;25.76;40.92
9774;BME280;4926;42.670;23.316;2023-10-31T09:14:02;94376.13;;;26.14;40.58
9774;BME280;4926;42.670;23.316;2023-10-31T09:16:36;94381.22;;;26.26;40.26
9774;BME280;4926;42.670;23.316;2023-10-31T09:19:05;94365.56;;;26.02;40.50
9774;BME280;4926;42.670;23.316;2023-10-31T09:21:34;94383.38;;;25.40;41.46
9774;BME280;4926;42.670;23.316;2023-10-31T09:24:01;94408.66;;;24.21;43.51
9774;BME280;4926;42.670;23.316;2023-10-31T09:26:28;94399.19;;;23.35;44.96
9774;BME280;4926;42.670;23.316;2023-10-31T09:28:55;94404.25;;;22.77;45.76
9774;BME280;4926;42.670;23.316;2023-10-31T09:31:22;94401.75;;;22.16;46.96
9774;BME280;4926;42.670;23.316;2023-10-31T09:33:50;94400.41;;;21.84;47.68
9774;BME280;4926;42.670;23.316;2023-10-31T09:36:20;94409.88;;;21.52;48.46
9774;BME280;4926;42.670;23.316;2023-10-31T09:38:49;94409.25;;;20.85;50.57
9774;BME280;4926;42.670;23.316;2023-10-31T09:41:16;94418.41;;;20.62;51.25
9774;BME280;4926;42.670;23.316;2023-10-31T09:43:44;94409.91;;;20.44;52.05
9774;BME280;4926;42.670;23.316;2023-10-31T09:46:11;94404.00;;;20.23;52.92
9774;BME280;4926;42.670;23.316;2023-10-31T09:48:39;94406.59;;;20.35;52.82
9774;BME280;4926;42.670;23.316;2023-10-31T09:51:14;94399.81;;;20.41;52.36
9774;BME280;4926;42.670;23.316;2023-10-31T09:53:43;94391.97;;;20.71;52.10
9774;BME280;4926;42.670;23.316;2023-10-31T09:56:10;94377.97;;;21.64;50.18
9774;BME280;4926;42.670;23.316;2023-10-31T09:58:37;94365.94;;;22.56;48.46
9774;BME280;4926;42.670;23.316;2023-10-31T10:01:06;94356.22;;;23.10;47.04
9774;BME280;4926;42.670;23.316;2023-10-31T10:03:33;94347.13;;;23.66;46.06
9774;BME280;4926;42.670;23.316;2023-10-31T10:06:02;94331.78;;;23.87;45.36
9774;BME280;4926;42.670;23.316;2023-10-31T10:08:30;94326.03;;;24.47;44.13
9774;BME280;4926;42.670;23.316;2023-10-31T10:10:57;94301.88;;;24.38;44.10
9774;BME280;4926;42.670;23.316;2023-10-31T10:13:24;94308.44;;;24.33;44.19
9774;BME280;4926;42.670;23.316;2023-10-31T10:15:52;94307.91;;;24.07;44.85
9774;BME280;4926;42.670;23.316;2023-10-31T10:18:26;94291.81;;;23.91;44.72
9774;BME280;4926;42.670;23.316;2023-10-31T10:20:58;94306.69;;;23.24;45.91
9774;BME280;4926;42.670;23.316;2023-10-31T10:23:25;94305.25;;;22.97;46.36
9774;BME280;4926;42.670;23.316;2023-10-31T10:25:55;94304.94;;;22.72;46.74
9774;BME280;4926;42.670;23.316;2023-10-31T10:28:22;94298.59;;;22.35;47.16
9774;BME280;4926;42.670;23.316;2023-10-31T10:30:50;94302.97;;;21.91;47.80
9774;BME280;4926;42.670;23.316;2023-10-31T10:33:17;94320.63;;;21.81;48.36
9774;BME280;4926;42.670;23.316;2023-10-31T10:35:44;94310.13;;;21.57;48.83
9774;BME280;4926;42.670;23.316;2023-10-31T10:38:18;94309.03;;;21.62;48.99
9774;BME280;4926;42.670;23.316;2023-10-31T10:40:46;94303.31;;;21.67;48.90
9774;BME280;4926;42.670;23.316;2023-10-31T10:43:21;94292.72;;;21.58;49.37
9774;BME280;4926;42.670;23.316;2023-10-31T10:45:53;94284.59;;;21.58;49.08
9774;BME280;4926;42.670;23.316;2023-10-31T10:48:22;94282.38;;;21.64;49.07
9774;BME280;4926;42.670;23.316;2023-10-31T10:50:53;94279.00;;;21.48;49.64
9774;BME280;4926;42.670;23.316;2023-10-31T10:53:22;94269.59;;;21.42;49.04
9774;BME280;4926;42.670;23.316;2023-10-31T10:55:51;94262.63;;;21.41;48.68
9774;BME280;4926;42.670;23.316;2023-10-31T10:58:24;94262.28;;;21.42;48.40
9774;BME280;4926;42.670;23.316;2023-10-31T11:00:55;94248.97;;;21.34;47.70
9774;BME280;4926;42.670;23.316;2023-10-31T11:03:24;94241.34;;;21.39;47.62
9774;BME280;4926;42.670;23.316;2023-10-31T11:05:54;94246.56;;;21.51;46.70
9774;BME280;4926;42.670;23.316;2023-10-31T11:08:24;94231.69;;;21.42;45.37
9774;BME280;4926;42.670;23.316;2023-10-31T11:10:52;94239.56;;;21.50;45.43
9774;BME280;4926;42.670;23.316;2023-10-31T11:13:22;94222.13;;;21.48;44.02
9774;BME280;4926;42.670;23.316;2023-10-31T11:15:53;94219.47;;;21.51;43.93
9774;BME280;4926;42.670;23.316;2023-10-31T11:18:26;94196.91;;;21.44;42.32
9774;BME280;4926;42.670;23.316;2023-10-31T11:20:53;94192.41;;;21.29;43.30
9774;BME280;4926;42.670;23.316;2023-10-31T11:23:22;94187.53;;;21.38;44.46
9774;BME280;4926;42.670;23.316;2023-10-31T11:25:52;94208.69;;;21.55;44.97
9774;BME280;4926;42.670;23.316;2023-10-31T11:28:21;94193.78;;;21.42;44.28
9774;BME280;4926;42.670;23.316;2023-10-31T11:30:48;94188.34;;;21.42;44.47
9774;BME280;4926;42.670;23.316;2023-10-31T11:33:24;94180.44;;;21.30;43.62
9774;BME280;4926;42.670;23.316;2023-10-31T11:35:59;94170.13;;;21.39;42.81
9774;BME280;4926;42.670;23.316;2023-10-31T11:38:35;94169.59;;;21.30;42.77
9774;BME280;4926;42.670;23.316;2023-10-31T11:41:03;94163.69;;;21.24;42.95
9774;BME280;4926;42.670;23.316;2023-10-31T11:43:56;94159.50;;;21.27;43.71
9774;BME280;4926;42.670;23.316;2023-10-31T11:46:23;94147.94;;;21.30;42.94
9774;BME280;4926;42.670;23.316;2023-10-31T11:48:52;94141.50;;;21.38;41.75
9774;BME280;4926;42.670;23.316;2023-10-31T11:51:20;94154.03;;;21.49;42.34
9774;BME280;4926;42.670;23.316;2023-10-31T11:53:48;94147.72;;;21.42;42.14
9774;BME280;4926;42.670;23.316;2023-10-31T11:56:15;94145.53;;;21.25;43.19
9774;BME280;4926;42.670;23.316;2023-10-31T11:58:44;94144.91;;;21.35;44.02
9774;BME280;4926;42.670;23.316;2023-10-31T12:01:12;94144.81;;;21.28;44.42
9774;BME280;4926;42.670;23.316;2023-10-31T12:03:40;94144.91;;;21.35;44.78
9774;BME280;4926;42.670;23.316;2023-10-31T12:06:08;94147.19;;;21.33;44.92
9774;BME280;4926;42.670;23.316;2023-10-31T12:08:36;94139.50;;;21.35;45.38
9774;BME280;4926;42.670;23.316;2023-10-31T12:11:08;94127.84;;;21.31;45.39
9774;BME280;4926;42.670;23.316;2023-10-31T12:13:40;94135.66;;;21.36;46.10
9774;BME280;4926;42.670;23.316;2023-10-31T12:16:09;94137.94;;;21.34;46.52
9774;BME280;4926;42.670;23.316;2023-10-31T12:18:38;94138.53;;;21.20;47.06
9774;BME280;4926;42.670;23.316;2023-10-31T12:21:09;94142.31;;;21.16;47.70
9774;BME280;4926;42.670;23.316;2023-10-31T12:23:39;94140.44;;;21.20;47.87
9774;BME280;4926;42.670;23.316;2023-10-31T12:26:09;94142.56;;;21.33;47.85
9774;BME280;4926;42.670;23.316;2023-10-31T12:28:36;94134.03;;;21.31;46.50
9774;BME280;4926;42.670;23.316;2023-10-31T12:31:03;94133.47;;;21.45;46.73
9774;BME280;4926;42.670;23.316;2023-10-31T12:33:30;94123.66;;;21.63;46.16
9774;BME280;4926;42.670;23.316;2023-10-31T12:35:59;94117.50;;;21.66;46.54
9774;BME280;4926;42.670;23.316;2023-10-31T12:38:27;94109.59;;;21.80;46.36
9774;BME280;4926;42.670;23.316;2023-10-31T12:40:55;94108.88;;;21.83;46.70
9774;BME280;4926;42.670;23.316;2023-10-31T12:43:22;94103.84;;;21.81;47.04
9774;BME280;4926;42.670;23.316;2023-10-31T12:45:48;94099.47;;;21.77;47.13
9774;BME280;4926;42.670;23.316;2023-10-31T12:48:37;94092.13;;;21.77;46.86
9774;BME280;4926;42.670;23.316;2023-10-31T12:51:16;94084.31;;;21.72;46.62
9774;BME280;4926;42.670;23.316;2023-10-31T12:53:54;94096.84;;;21.80;46.53
9774;BME280;4926;42.670;23.316;2023-10-31T12:56:39;94078.78;;;21.62;46.63
9774;BME280;4926;42.670;23.316;2023-10-31T12:59:06;94096.75;;;21.77;46.58
9774;BME280;4926;42.670;23.316;2023-10-31T13:01:36;94095.88;;;21.69;46.69
9774;BME280;4926;42.670;23.316;2023-10-31T13:04:03;94103.53;;;21.60;46.86
9774;BME280;4926;42.670;23.316;2023-10-31T13:06:31;94095.75;;;21.59;46.83
9774;BME280;4926;42.670;23.316;2023-10-31T13:08:58;94097.31;;;21.60;47.26
9774;BME280;4926;42.670;23.316;2023-10-31T13:11:29;94094.97;;;21.58;47.23
9774;BME280;4926;42.670;23.316;2023-10-31T13:13:56;94101.94;;;21.59;47.51
9774;BME280;4926;42.670;23.316;2023-10-31T13:16:23;94095.56;;;21.45;48.23
9774;BME280;4926;42.670;23.316;2023-10-31T13:18:52;94096.31;;;21.45;47.91
9774;BME280;4926;42.670;23.316;2023-10-31T13:21:19;94082.03;;;21.45;48.01
9774;BME280;4926;42.670;23.316;2023-10-31T13:23:49;94076.19;;;21.43;48.07